Time,TemperatureF,DewpointF,PressureIn,WindDirection,WindDirectionDegrees,WindSpeedMPH,WindSpeedGustMPH,Humidity,HourlyPrecipIn,Conditions,Clouds,dailyrainin,SolarRadiationWatts/m^2,SoftwareType,DateUTC
2013-08-07 00:02:00,73.0,65.0,-100.00,NW,322,4.0,9.0,77,0.00,,,0.00,0.000000,,2013-08-07 05:02:00,
2013-08-07 00:32:00,72.0,65.0,-100.00,ESE,116,2.0,6.0,80,0.00,,,0.00,0.000000,,2013-08-07 05:32:00,
2013-08-07 00:43:00,72.0,65.0,-100.00,ESE,116,2.0,6.0,80,0.00,,,0.00,0.000000,,2013-08-07 05:43:00,
2013-08-07 00:52:00,72.0,65.0,-100.00,ESE,116,2.0,6.0,80,0.00,,,0.00,0.000000,,2013-08-07 05:52:00,
2013-08-07 01:02:00,72.0,65.0,-100.00,ESE,116,2.0,6.0,80,0.00,,,0.00,0.000000,,2013-08-07 06:02:00,
2013-08-07 01:32:00,73.0,68.0,-100.00,South,175,4.0,6.0,83,0.00,,,0.00,0.000000,,2013-08-07 06:32:00,
2013-08-07 01:43:00,73.0,68.0,-100.00,South,175,4.0,6.0,83,0.00,,,0.00,0.000000,,2013-08-07 06:43:00,
2013-08-07 01:52:00,73.0,68.0,-100.00,South,175,4.0,6.0,83,0.00,,,0.00,0.000000,,2013-08-07 06:52:00,
2013-08-07 02:01:00,73.0,68.0,-100.00,South,175,4.0,6.0,83,0.00,,,0.00,0.000000,,2013-08-07 07:01:00,
2013-08-07 02:33:00,73.0,71.0,-100.00,WSW,246,4.0,12.0,95,0.11,,,0.11,0.000000,,2013-08-07 07:33:00,
2013-08-07 02:43:00,73.0,71.0,-100.00,WSW,246,4.0,12.0,95,0.11,,,0.11,0.000000,,2013-08-07 07:43:00,
2013-08-07 02:52:00,73.0,71.0,-100.00,WSW,246,4.0,12.0,95,0.11,,,0.11,0.000000,,2013-08-07 07:52:00,
2013-08-07 03:01:00,73.0,71.0,-100.00,WSW,246,4.0,12.0,95,0.11,,,0.11,0.000000,,2013-08-07 08:01:00,
2013-08-07 03:32:00,71.0,69.0,-100.00,SSE,164,4.0,9.0,95,0.07,,,0.18,0.000000,,2013-08-07 08:32:00,
2013-08-07 03:44:00,71.0,69.0,-100.00,SSE,164,4.0,9.0,95,0.07,,,0.18,0.000000,,2013-08-07 08:44:00,
2013-08-07 03:53:00,71.0,69.0,-100.00,SSE,164,4.0,9.0,95,0.07,,,0.18,0.000000,,2013-08-07 08:53:00,
2013-08-07 04:02:00,71.0,69.0,-100.00,SSE,164,4.0,9.0,95,0.07,,,0.18,0.000000,,2013-08-07 09:02:00,
2013-08-07 04:32:00,69.0,68.0,-100.00,NW,312,4.0,7.0,98,0.00,,,0.18,0.000000,,2013-08-07 09:32:00,
2013-08-07 04:43:00,69.0,68.0,-100.00,NW,312,4.0,7.0,98,0.00,,,0.18,0.000000,,2013-08-07 09:43:00,
2013-08-07 04:54:00,69.0,68.0,-100.00,NW,312,4.0,7.0,98,0.00,,,0.18,0.000000,,2013-08-07 09:54:00,
2013-08-07 05:01:00,69.0,68.0,-100.00,NW,312,4.0,7.0,98,0.00,,,0.18,0.000000,,2013-08-07 10:01:00,
2013-08-07 05:32:00,68.0,68.0,-100.00,WNW,303,3.0,8.0,100,0.00,,,0.18,0.000000,,2013-08-07 10:32:00,
2013-08-07 05:43:00,68.0,68.0,-100.00,WNW,303,3.0,8.0,100,0.00,,,0.18,0.000000,,2013-08-07 10:43:00,
2013-08-07 05:52:00,68.0,68.0,-100.00,WNW,303,3.0,8.0,100,0.00,,,0.18,0.000000,,2013-08-07 10:52:00,
2013-08-07 06:01:00,68.0,68.0,-100.00,WNW,303,3.0,8.0,100,0.00,,,0.18,0.000000,,2013-08-07 11:01:00,
2013-08-07 06:32:00,68.0,68.0,-100.00,NNW,337,1.0,5.0,100,0.01,,,0.19,0.000000,,2013-08-07 11:32:00,
2013-08-07 06:43:00,68.0,68.0,-100.00,NNW,337,1.0,5.0,100,0.01,,,0.19,0.000000,,2013-08-07 11:43:00,
2013-08-07 06:53:00,68.0,68.0,-100.00,NNW,337,1.0,5.0,100,0.01,,,0.19,0.000000,,2013-08-07 11:53:00,
2013-08-07 07:02:00,68.0,68.0,-100.00,NNW,337,1.0,5.0,100,0.01,,,0.19,0.000000,,2013-08-07 12:02:00,
2013-08-07 07:33:00,68.0,68.0,-100.00,South,180,0.0,3.0,100,0.00,,,0.19,19.000000,,2013-08-07 12:33:00,
2013-08-07 07:43:00,68.0,68.0,-100.00,South,180,0.0,3.0,100,0.00,,,0.19,19.000000,,2013-08-07 12:43:00,
2013-08-07 07:52:00,68.0,68.0,-100.00,South,180,0.0,3.0,100,0.00,,,0.19,19.000000,,2013-08-07 12:52:00,
2013-08-07 08:02:00,68.0,68.0,-100.00,South,180,0.0,3.0,100,0.00,,,0.19,19.000000,,2013-08-07 13:02:00,
2013-08-07 08:32:00,72.0,70.0,-100.00,West,264,0.0,5.0,94,0.00,,,0.19,110.000000,,2013-08-07 13:32:00,
2013-08-07 08:44:00,72.0,70.0,-100.00,West,264,0.0,5.0,94,0.00,,,0.19,110.000000,,2013-08-07 13:44:00,
2013-08-07 08:53:00,72.0,70.0,-100.00,West,264,0.0,5.0,94,0.00,,,0.19,110.000000,,2013-08-07 13:53:00,
2013-08-07 09:02:00,72.0,70.0,-100.00,West,264,0.0,5.0,94,0.00,,,0.19,110.000000,,2013-08-07 14:02:00,
2013-08-07 09:33:00,75.0,71.0,-100.00,NW,313,4.0,7.0,87,0.00,,,0.19,262.000000,,2013-08-07 14:33:00,
2013-08-07 09:43:00,75.0,71.0,-100.00,NW,313,4.0,7.0,87,0.00,,,0.19,262.000000,,2013-08-07 14:43:00,
2013-08-07 09:52:00,75.0,71.0,-100.00,NW,313,4.0,7.0,87,0.00,,,0.19,262.000000,,2013-08-07 14:52:00,
2013-08-07 10:02:00,75.0,71.0,-100.00,NW,313,4.0,7.0,87,0.00,,,0.19,262.000000,,2013-08-07 15:02:00,
2013-08-07 10:33:00,77.0,71.0,-100.00,NNW,335,5.0,10.0,81,0.00,,,0.19,384.000000,,2013-08-07 15:33:00,
2013-08-07 10:43:00,77.0,71.0,-100.00,NNW,335,5.0,10.0,81,0.00,,,0.19,384.000000,,2013-08-07 15:43:00,
2013-08-07 10:53:00,77.0,71.0,-100.00,NNW,335,5.0,10.0,81,0.00,,,0.19,384.000000,,2013-08-07 15:53:00,
2013-08-07 11:02:00,77.0,71.0,-100.00,NNW,335,5.0,10.0,81,0.00,,,0.19,384.000000,,2013-08-07 16:02:00,
2013-08-07 11:33:00,80.0,69.0,-100.00,NNW,334,5.0,11.0,70,0.00,,,0.19,560.000000,,2013-08-07 16:33:00,
2013-08-07 11:43:00,80.0,69.0,-100.00,NNW,334,5.0,11.0,70,0.00,,,0.19,560.000000,,2013-08-07 16:43:00,
2013-08-07 11:53:00,80.0,69.0,-100.00,NNW,334,5.0,11.0,70,0.00,,,0.19,560.000000,,2013-08-07 16:53:00,
2013-08-07 12:01:00,80.0,69.0,-100.00,NNW,334,5.0,11.0,70,0.00,,,0.19,560.000000,,2013-08-07 17:01:00,
2013-08-07 12:33:00,82.0,66.0,-100.00,NNW,342,9.0,14.0,58,0.00,,,0.19,612.000000,,2013-08-07 17:33:00,
2013-08-07 12:43:00,82.0,66.0,-100.00,NNW,342,9.0,14.0,58,0.00,,,0.19,612.000000,,2013-08-07 17:43:00,
2013-08-07 12:52:00,82.0,66.0,-100.00,NNW,342,9.0,14.0,58,0.00,,,0.19,612.000000,,2013-08-07 17:52:00,
2013-08-07 13:02:00,82.0,66.0,-100.00,NNW,342,9.0,14.0,58,0.00,,,0.19,612.000000,,2013-08-07 18:02:00,
2013-08-07 13:32:00,81.0,65.0,-100.00,North,350,8.0,16.0,59,0.00,,,0.19,643.000000,,2013-08-07 18:32:00,
2013-08-07 13:43:00,81.0,65.0,-100.00,North,350,8.0,16.0,59,0.00,,,0.19,643.000000,,2013-08-07 18:43:00,
2013-08-07 13:52:00,81.0,65.0,-100.00,North,350,8.0,16.0,59,0.00,,,0.19,643.000000,,2013-08-07 18:52:00,
2013-08-07 14:01:00,81.0,65.0,-100.00,North,350,8.0,16.0,59,0.00,,,0.19,643.000000,,2013-08-07 19:01:00,
2013-08-07 14:32:00,81.0,66.0,-100.00,NNW,339,8.0,14.0,60,0.00,,,0.19,655.000000,,2013-08-07 19:32:00,
2013-08-07 14:44:00,81.0,66.0,-100.00,NNW,339,8.0,14.0,60,0.00,,,0.19,655.000000,,2013-08-07 19:44:00,
2013-08-07 14:53:00,81.0,66.0,-100.00,NNW,339,8.0,14.0,60,0.00,,,0.19,655.000000,,2013-08-07 19:53:00,
2013-08-07 15:02:00,81.0,66.0,-100.00,NNW,339,8.0,14.0,60,0.00,,,0.19,655.000000,,2013-08-07 20:02:00,
2013-08-07 15:33:00,83.0,66.0,-100.00,North,5,7.0,17.0,57,0.00,,,0.19,791.000000,,2013-08-07 20:33:00,
2013-08-07 15:43:00,83.0,66.0,-100.00,North,5,7.0,17.0,57,0.00,,,0.19,791.000000,,2013-08-07 20:43:00,
2013-08-07 15:52:00,83.0,66.0,-100.00,North,5,7.0,17.0,57,0.00,,,0.19,791.000000,,2013-08-07 20:52:00,
2013-08-07 16:01:00,83.0,66.0,-100.00,North,5,7.0,17.0,57,0.00,,,0.19,791.000000,,2013-08-07 21:01:00,
2013-08-07 16:32:00,83.0,65.0,-100.00,North,351,8.0,15.0,55,0.00,,,0.19,780.000000,,2013-08-07 21:32:00,
2013-08-07 16:43:00,83.0,65.0,-100.00,North,351,8.0,15.0,55,0.00,,,0.19,780.000000,,2013-08-07 21:43:00,
2013-08-07 16:52:00,83.0,65.0,-100.00,North,351,8.0,15.0,55,0.00,,,0.19,780.000000,,2013-08-07 21:52:00,
2013-08-07 17:01:00,83.0,65.0,-100.00,North,351,8.0,15.0,55,0.00,,,0.19,780.000000,,2013-08-07 22:01:00,
2013-08-07 17:32:00,82.0,65.0,-100.00,North,354,8.0,14.0,56,0.00,,,0.19,578.000000,,2013-08-07 22:32:00,
2013-08-07 17:43:00,82.0,65.0,-100.00,North,354,8.0,14.0,56,0.00,,,0.19,578.000000,,2013-08-07 22:43:00,
2013-08-07 17:52:00,82.0,65.0,-100.00,North,354,8.0,14.0,56,0.00,,,0.19,578.000000,,2013-08-07 22:52:00,
2013-08-07 18:01:00,82.0,65.0,-100.00,North,354,8.0,14.0,56,0.00,,,0.19,578.000000,,2013-08-07 23:01:00,
2013-08-07 18:32:00,81.0,64.0,-100.00,NNE,21,7.0,15.0,56,0.00,,,0.19,453.000000,,2013-08-07 23:32:00,
2013-08-07 18:43:00,81.0,64.0,-100.00,NNE,21,7.0,15.0,56,0.00,,,0.19,453.000000,,2013-08-07 23:43:00,
2013-08-07 18:52:00,81.0,64.0,-100.00,NNE,21,7.0,15.0,56,0.00,,,0.19,453.000000,,2013-08-07 23:52:00,
2013-08-07 19:01:00,81.0,64.0,-100.00,NNE,21,7.0,15.0,56,0.00,,,0.19,453.000000,,2013-08-08 00:01:00,
2013-08-07 19:32:00,78.0,64.0,-100.00,NNE,22,6.0,11.0,62,0.00,,,0.19,254.000000,,2013-08-08 00:32:00,
2013-08-07 19:43:00,78.0,64.0,-100.00,NNE,22,6.0,11.0,62,0.00,,,0.19,254.000000,,2013-08-08 00:43:00,
2013-08-07 19:52:00,78.0,64.0,-100.00,NNE,22,6.0,11.0,62,0.00,,,0.19,254.000000,,2013-08-08 00:52:00,
2013-08-07 20:02:00,78.0,64.0,-100.00,NNE,22,6.0,11.0,62,0.00,,,0.19,254.000000,,2013-08-08 01:02:00,
2013-08-07 20:32:00,74.0,64.0,-100.00,NE,43,5.0,10.0,70,0.00,,,0.19,87.000000,,2013-08-08 01:32:00,
2013-08-07 20:43:00,74.0,64.0,-100.00,NE,43,5.0,10.0,70,0.00,,,0.19,87.000000,,2013-08-08 01:43:00,
2013-08-07 20:52:00,74.0,64.0,-100.00,NE,43,5.0,10.0,70,0.00,,,0.19,87.000000,,2013-08-08 01:52:00,
2013-08-07 21:02:00,74.0,64.0,-100.00,NE,43,5.0,10.0,70,0.00,,,0.19,87.000000,,2013-08-08 02:02:00,
2013-08-07 21:32:00,70.0,63.0,-100.00,NE,44,3.0,5.0,79,0.00,,,0.19,3.000000,,2013-08-08 02:32:00,
2013-08-07 21:43:00,70.0,63.0,-100.00,NE,44,3.0,5.0,79,0.00,,,0.19,3.000000,,2013-08-08 02:43:00,
2013-08-07 21:52:00,70.0,63.0,-100.00,NE,44,3.0,5.0,79,0.00,,,0.19,3.000000,,2013-08-08 02:52:00,
2013-08-07 22:01:00,70.0,63.0,-100.00,NE,44,3.0,5.0,79,0.00,,,0.19,3.000000,,2013-08-08 03:01:00,
2013-08-07 22:32:00,68.0,63.0,-100.00,NNE,31,4.0,6.0,83,0.00,,,0.19,0.000000,,2013-08-08 03:32:00,
2013-08-07 22:43:00,68.0,63.0,-100.00,NNE,31,4.0,6.0,83,0.00,,,0.19,0.000000,,2013-08-08 03:43:00,
2013-08-07 22:52:00,68.0,63.0,-100.00,NNE,31,4.0,6.0,83,0.00,,,0.19,0.000000,,2013-08-08 03:52:00,
2013-08-07 23:01:00,68.0,63.0,-100.00,NNE,31,4.0,6.0,83,0.00,,,0.19,0.000000,,2013-08-08 04:01:00,
2013-08-07 23:33:00,67.0,63.0,-100.00,ENE,62,3.0,7.0,87,0.00,,,0.19,0.000000,,2013-08-08 04:33:00,
2013-08-07 23:44:00,67.0,63.0,-100.00,ENE,62,3.0,7.0,87,0.00,,,0.19,0.000000,,2013-08-08 04:44:00,
2013-08-07 23:53:00,67.0,63.0,-100.00,ENE,62,3.0,7.0,87,0.00,,,0.19,0.000000,,2013-08-08 04:53:00,